Time;durP1;ratioP1;P1;durP2;ratioP2;P2;SDS_P1;SDS_P2;PMS_P1;PMS_P2;Temp;Humidity;BMP_temperature;BMP_pressure;BME280_temperature;BME280_humidity;BME280_pressure;Samples;Min_cycle;Max_cycle;Signal;HPM_P1;HPM_P2
2021/12/13 00:00:01;;;;;;;3.75;2.17;;;;;;;;;;5013518;28;20030;-57
2021/12/13 00:02:38;;;;;;;3.55;2.38;;;;;;;;;;5013825;28;20026;-57
2021/12/13 00:05:07;;;;;;;2.03;1.48;;;;;;;;;;5013240;28;20418;-57
2021/12/13 00:07:35;;;;;;;2.92;1.88;;;;;;;;;;5013772;28;20101;-57
2021/12/13 00:10:06;;;;;;;3.58;2.30;;;;;;;;;;5013282;28;20033;-57
2021/12/13 00:12:34;;;;;;;3.75;2.42;;;;;;;;;;5014047;28;20026;-58
2021/12/13 00:15:01;;;;;;;2.08;1.52;;;;;;;;;;5013094;28;20026;-56
2021/12/13 00:17:30;;;;;;;2.78;1.95;;;;;;;;;;5013476;28;20030;-57
2021/12/13 00:19:59;;;;;;;3.33;1.65;;;;;;;;;;5013123;28;20030;-58
2021/12/13 00:22:32;;;;;;;3.42;2.10;;;;;;;;;;5013153;28;20022;-57
2021/12/13 00:25:03;;;;;;;2.88;1.80;;;;;;;;;;5013177;28;20111;-57
2021/12/13 00:27:30;;;;;;;2.88;1.67;;;;;;;;;;5014031;28;20065;-57
2021/12/13 00:30:08;;;;;;;3.20;1.50;;;;;;;;;;5012313;28;20041;-57
2021/12/13 00:32:52;;;;;;;2.13;1.58;;;;;;;;;;5013405;28;20029;-57
2021/12/13 00:35:22;;;;;;;3.00;1.70;;;;;;;;;;5013217;28;20022;-57
2021/12/13 00:37:52;;;;;;;3.40;1.63;;;;;;;;;;5013095;28;20482;-58
2021/12/13 00:40:24;;;;;;;3.05;1.60;;;;;;;;;;5012768;28;20034;-57
2021/12/13 00:43:01;;;;;;;3.63;1.98;;;;;;;;;;5013158;28;20104;-58
2021/12/13 00:45:31;;;;;;;2.72;1.45;;;;;;;;;;5013091;28;20044;-57
2021/12/13 00:47:58;;;;;;;2.63;1.63;;;;;;;;;;5012497;28;20034;-57
2021/12/13 00:50:32;;;;;;;4.80;1.45;;;;;;;;;;5013119;28;20117;-57
2021/12/13 00:52:59;;;;;;;2.30;1.42;;;;;;;;;;5012742;28;20022;-57
2021/12/13 00:55:26;;;;;;;2.83;1.70;;;;;;;;;;5012654;28;20025;-57
2021/12/13 00:58:05;;;;;;;2.83;1.92;;;;;;;;;;5012757;28;20066;-57
2021/12/13 01:00:34;;;;;;;3.40;1.40;;;;;;;;;;5013603;28;20034;-57
2021/12/13 01:03:02;;;;;;;3.00;2.20;;;;;;;;;;5012742;28;20025;-57
2021/12/13 01:05:47;;;;;;;1.77;1.13;;;;;;;;;;5012522;28;20034;-58
2021/12/13 01:08:15;;;;;;;4.32;1.45;;;;;;;;;;4992591;28;20041;-57
2021/12/13 01:10:54;;;;;;;2.60;1.73;;;;;;;;;;4993571;28;20480;-57
2021/12/13 01:13:36;;;;;;;2.42;1.27;;;;;;;;;;4993277;28;20045;-58
2021/12/13 01:16:31;;;;;;;3.55;1.88;;;;;;;;;;4992630;28;20057;-57
2021/12/13 01:21:58;;;;;;;3.45;1.65;;;;;;;;;;4993246;28;20376;-58
2021/12/13 01:27:11;;;;;;;2.15;1.70;;;;;;;;;;4992819;28;20037;-58
2021/12/13 01:29:37;;;;;;;2.03;1.35;;;;;;;;;;4993312;28;20038;-58
2021/12/13 01:32:08;;;;;;;2.25;1.45;;;;;;;;;;4992354;28;20019;-58
2021/12/13 01:34:35;;;;;;;1.75;1.40;;;;;;;;;;4992824;28;20022;-58
2021/12/13 01:37:12;;;;;;;2.10;1.20;;;;;;;;;;5002707;28;20033;-57
2021/12/13 01:39:40;;;;;;;2.33;1.15;;;;;;;;;;5013303;28;20111;-58
2021/12/13 01:42:11;;;;;;;2.85;1.73;;;;;;;;;;5016136;28;20378;-59
2021/12/13 01:44:42;;;;;;;3.13;1.83;;;;;;;;;;5016329;28;20383;-58
2021/12/13 01:47:11;;;;;;;2.00;1.40;;;;;;;;;;5016119;28;20034;-57
2021/12/13 01:49:40;;;;;;;1.75;1.02;;;;;;;;;;5016389;28;20498;-57
2021/12/13 01:52:24;;;;;;;2.45;1.40;;;;;;;;;;5015770;28;20467;-58
2021/12/13 01:54:51;;;;;;;2.63;1.27;;;;;;;;;;5016434;28;20065;-58
2021/12/13 01:57:38;;;;;;;2.22;1.20;;;;;;;;;;5015410;28;20116;-57
2021/12/13 02:00:08;;;;;;;2.33;1.40;;;;;;;;;;5015817;28;20101;-59
2021/12/13 02:02:34;;;;;;;3.50;1.52;;;;;;;;;;5015679;28;20026;-56
2021/12/13 02:05:00;;;;;;;2.72;1.58;;;;;;;;;;5015072;28;20075;-57
2021/12/13 02:07:27;;;;;;;2.58;1.17;;;;;;;;;;5016280;28;20121;-57
2021/12/13 02:09:56;;;;;;;2.33;1.60;;;;;;;;;;5015867;28;20109;-57
2021/12/13 02:12:26;;;;;;;1.77;1.30;;;;;;;;;;5015946;28;20117;-57
2021/12/13 02:17:40;;;;;;;3.85;1.55;;;;;;;;;;5016093;28;20033;-58
2021/12/13 02:20:12;;;;;;;2.33;1.48;;;;;;;;;;5015164;28;20375;-57
2021/12/13 02:22:46;;;;;;;3.92;1.85;;;;;;;;;;5015875;28;20479;-57
2021/12/13 02:25:18;;;;;;;1.35;0.90;;;;;;;;;;5015436;28;20044;-57
2021/12/13 02:27:47;;;;;;;2.13;1.27;;;;;;;;;;5015595;28;20080;-57
2021/12/13 02:30:36;;;;;;;1.98;1.02;;;;;;;;;;5015196;28;20104;-59
2021/12/13 02:33:04;;;;;;;3.92;1.75;;;;;;;;;;5014436;28;20049;-58
2021/12/13 02:35:32;;;;;;;3.25;1.30;;;;;;;;;;5015595;28;20041;-57
2021/12/13 02:37:58;;;;;;;3.03;1.30;;;;;;;;;;5014804;28;20042;-59
2021/12/13 02:40:25;;;;;;;1.98;1.30;;;;;;;;;;5015671;28;20061;-56
2021/12/13 02:42:51;;;;;;;3.35;1.80;;;;;;;;;;5015756;28;20030;-57
2021/12/13 02:45:28;;;;;;;3.17;1.85;;;;;;;;;;5014886;28;20633;-57
2021/12/13 02:48:01;;;;;;;1.90;1.20;;;;;;;;;;5015478;28;20030;-57
2021/12/13 02:50:39;;;;;;;1.55;1.13;;;;;;;;;;5015477;28;20395;-57
2021/12/13 02:53:05;;;;;;;1.85;1.45;;;;;;;;;;5014537;28;20026;-57
2021/12/13 02:55:31;;;;;;;2.00;1.10;;;;;;;;;;5014964;28;20057;-57
2021/12/13 02:58:00;;;;;;;1.33;1.02;;;;;;;;;;5015414;28;20199;-58
2021/12/13 03:00:30;;;;;;;2.45;1.00;;;;;;;;;;5015131;28;20080;-56
2021/12/13 03:02:58;;;;;;;1.90;1.50;;;;;;;;;;5015449;28;20021;-57
2021/12/13 03:05:30;;;;;;;3.17;1.38;;;;;;;;;;5015074;28;20044;-58
2021/12/13 03:07:58;;;;;;;2.45;1.25;;;;;;;;;;5014938;28;20041;-57
2021/12/13 03:10:29;;;;;;;2.15;1.10;;;;;;;;;;5015020;28;20030;-57
2021/12/13 03:12:55;;;;;;;2.40;1.10;;;;;;;;;;5015396;28;20034;-57
2021/12/13 03:15:23;;;;;;;1.48;0.95;;;;;;;;;;5014450;28;20026;-57
2021/12/13 03:17:52;;;;;;;1.63;1.10;;;;;;;;;;5014894;28;20061;-58
2021/12/13 03:20:41;;;;;;;1.70;1.30;;;;;;;;;;5014057;28;20503;-58
2021/12/13 03:23:22;;;;;;;2.00;1.30;;;;;;;;;;5013769;28;20057;-56
2021/12/13 03:26:06;;;;;;;1.75;1.27;;;;;;;;;;5014669;28;20374;-58
2021/12/13 03:29:02;;;;;;;1.73;0.90;;;;;;;;;;5014807;28;20180;-57
2021/12/13 03:31:31;;;;;;;2.30;1.20;;;;;;;;;;5014023;28;20038;-58
2021/12/13 03:34:00;;;;;;;1.63;1.17;;;;;;;;;;5014766;28;20431;-56
2021/12/13 03:36:49;;;;;;;2.25;1.05;;;;;;;;;;5014290;28;20021;-57
2021/12/13 03:39:19;;;;;;;5.40;1.48;;;;;;;;;;5013193;28;20383;-58
2021/12/13 03:41:47;;;;;;;1.98;1.05;;;;;;;;;;5014200;28;20421;-57
2021/12/13 03:44:20;;;;;;;1.08;0.98;;;;;;;;;;5013660;28;20065;-57
2021/12/13 03:46:47;;;;;;;1.23;1.00;;;;;;;;;;5014478;28;20057;-57
2021/12/13 03:49:13;;;;;;;2.63;1.02;;;;;;;;;;5013817;28;20041;-57
2021/12/13 03:51:41;;;;;;;2.30;1.10;;;;;;;;;;5014311;28;20026;-57
2021/12/13 03:54:08;;;;;;;1.45;1.00;;;;;;;;;;5013894;28;20100;-57
2021/12/13 03:56:36;;;;;;;1.83;1.00;;;;;;;;;;5014048;28;20192;-57
2021/12/13 03:59:05;;;;;;;1.48;1.00;;;;;;;;;;5013674;28;20108;-59
2021/12/13 04:01:36;;;;;;;1.23;0.90;;;;;;;;;;5013898;28;20383;-58
2021/12/13 04:04:04;;;;;;;1.35;1.05;;;;;;;;;;5012524;28;20026;-59
2021/12/13 04:06:30;;;;;;;1.83;1.15;;;;;;;;;;5014266;28;20040;-57
2021/12/13 04:08:58;;;;;;;0.98;0.88;;;;;;;;;;5013849;28;20037;-57
2021/12/13 04:11:25;;;;;;;1.63;1.20;;;;;;;;;;5013352;28;20034;-58
2021/12/13 04:14:06;;;;;;;2.00;1.13;;;;;;;;;;5013981;28;20033;-57
2021/12/13 04:16:46;;;;;;;1.35;1.02;;;;;;;;;;5013840;28;20097;-57
2021/12/13 04:19:16;;;;;;;1.35;0.80;;;;;;;;;;5013308;28;20025;-58
2021/12/13 04:21:48;;;;;;;1.63;1.00;;;;;;;;;;5013691;28;20022;-58
2021/12/13 04:24:19;;;;;;;1.48;1.17;;;;;;;;;;5012993;28;20112;-57
2021/12/13 04:26:49;;;;;;;1.13;0.80;;;;;;;;;;5012711;28;20088;-57
2021/12/13 04:29:21;;;;;;;1.48;1.05;;;;;;;;;;5012738;28;20483;-56
2021/12/13 04:31:48;;;;;;;2.70;1.60;;;;;;;;;;5013412;28;20526;-57
2021/12/13 04:34:14;;;;;;;1.77;1.08;;;;;;;;;;5013054;28;20057;-57
2021/12/13 04:36:42;;;;;;;1.58;1.10;;;;;;;;;;5013355;28;20018;-57
2021/12/13 04:39:13;;;;;;;1.48;0.90;;;;;;;;;;5012674;28;20034;-57
2021/12/13 04:41:42;;;;;;;1.83;0.80;;;;;;;;;;5013492;28;20363;-57
2021/12/13 04:44:15;;;;;;;1.45;0.90;;;;;;;;;;5012671;28;20112;-57
2021/12/13 04:46:42;;;;;;;1.38;0.98;;;;;;;;;;5013128;28;20026;-58
2021/12/13 04:49:10;;;;;;;1.67;1.10;;;;;;;;;;5012522;28;20173;-59
2021/12/13 04:51:56;;;;;;;1.08;0.90;;;;;;;;;;5013480;28;20379;-57
2021/12/13 04:54:23;;;;;;;2.08;1.20;;;;;;;;;;5012140;28;20053;-57
2021/12/13 04:56:50;;;;;;;1.40;1.02;;;;;;;;;;5012969;28;20050;-57
2021/12/13 04:59:17;;;;;;;4.05;1.00;;;;;;;;;;5012383;28;20026;-58
2021/12/13 05:01:48;;;;;;;1.50;0.85;;;;;;;;;;5012898;28;20552;-57
2021/12/13 05:04:14;;;;;;;1.17;0.90;;;;;;;;;;5012352;28;20052;-57
2021/12/13 05:06:41;;;;;;;2.13;0.90;;;;;;;;;;5012832;28;20026;-57
2021/12/13 05:09:09;;;;;;;1.50;0.70;;;;;;;;;;5012151;28;20396;-57
2021/12/13 05:11:39;;;;;;;1.30;0.98;;;;;;;;;;5013012;28;20068;-57
2021/12/13 05:14:06;;;;;;;1.58;1.15;;;;;;;;;;5011932;28;20118;-58
2021/12/13 05:16:45;;;;;;;1.08;0.90;;;;;;;;;;5012832;28;20104;-57
2021/12/13 05:19:13;;;;;;;1.60;1.13;;;;;;;;;;5012263;28;20022;-58
2021/12/13 05:21:41;;;;;;;1.88;0.90;;;;;;;;;;5012798;28;20022;-57
2021/12/13 05:24:26;;;;;;;1.83;0.90;;;;;;;;;;5012099;28;20014;-58
2021/12/13 05:27:05;;;;;;;0.98;0.82;;;;;;;;;;5012951;28;20026;-57
2021/12/13 05:29:36;;;;;;;1.33;0.73;;;;;;;;;;5012705;28;20041;-57
2021/12/13 05:32:13;;;;;;;1.65;1.20;;;;;;;;;;5012646;28;20105;-58
2021/12/13 05:34:41;;;;;;;1.45;1.00;;;;;;;;;;5012690;28;20379;-57
2021/12/13 05:37:08;;;;;;;3.22;1.00;;;;;;;;;;5011992;28;20022;-58
2021/12/13 05:39:36;;;;;;;1.42;1.20;;;;;;;;;;5012466;28;20101;-58
2021/12/13 05:42:08;;;;;;;2.67;1.00;;;;;;;;;;5012542;28;20022;-58
2021/12/13 05:44:35;;;;;;;1.65;1.17;;;;;;;;;;5012495;28;20033;-58
2021/12/13 05:47:05;;;;;;;1.58;1.00;;;;;;;;;;5012596;28;20014;-58
2021/12/13 05:49:34;;;;;;;1.40;0.95;;;;;;;;;;5012729;28;20084;-58
2021/12/13 05:52:06;;;;;;;1.40;1.02;;;;;;;;;;5012562;28;20054;-58
2021/12/13 05:54:34;;;;;;;1.13;0.75;;;;;;;;;;5011979;28;20463;-57
2021/12/13 05:57:06;;;;;;;1.30;0.90;;;;;;;;;;5011794;28;20054;-58
2021/12/13 05:59:34;;;;;;;1.27;1.00;;;;;;;;;;5012391;28;20038;-58
2021/12/13 06:02:03;;;;;;;1.67;1.00;;;;;;;;;;5012736;28;20379;-57
2021/12/13 06:04:44;;;;;;;1.90;1.13;;;;;;;;;;5012266;28;20022;-57
2021/12/13 06:07:17;;;;;;;1.05;0.82;;;;;;;;;;5011625;28;20030;-57
2021/12/13 06:09:43;;;;;;;3.63;1.13;;;;;;;;;;5012308;28;20037;-58
2021/12/13 06:12:11;;;;;;;1.35;1.02;;;;;;;;;;5011523;28;20034;-58
2021/12/13 06:14:37;;;;;;;1.98;1.00;;;;;;;;;;5011975;28;20101;-57
2021/12/13 06:17:29;;;;;;;1.27;0.90;;;;;;;;;;5012254;28;20111;-54
2021/12/13 06:19:57;;;;;;;1.60;1.02;;;;;;;;;;5011664;28;20030;-54
2021/12/13 06:22:25;;;;;;;1.35;1.00;;;;;;;;;;5011713;28;20100;-55
2021/12/13 06:24:57;;;;;;;1.30;1.00;;;;;;;;;;5011927;28;20363;-54
2021/12/13 06:27:24;;;;;;;2.10;0.80;;;;;;;;;;5013355;28;20379;-53
2021/12/13 06:30:10;;;;;;;1.73;0.98;;;;;;;;;;5015455;28;20034;-55
2021/12/13 06:32:36;;;;;;;1.58;1.00;;;;;;;;;;5015878;28;20468;-56
2021/12/13 06:35:21;;;;;;;2.92;1.20;;;;;;;;;;5015493;28;20109;-55
2021/12/13 06:37:47;;;;;;;3.05;1.33;;;;;;;;;;5015525;28;20038;-58
2021/12/13 06:40:16;;;;;;;2.55;1.30;;;;;;;;;;5015058;28;20030;-59
2021/12/13 06:42:42;;;;;;;2.55;1.00;;;;;;;;;;5015092;28;20479;-57
2021/12/13 06:45:23;;;;;;;7.50;1.50;;;;;;;;;;4995171;28;20045;-53
2021/12/13 06:47:51;;;;;;;5.10;1.13;;;;;;;;;;4995816;28;20040;-58
2021/12/13 06:50:22;;;;;;;6.93;1.30;;;;;;;;;;4994988;28;20027;-56
2021/12/13 06:52:48;;;;;;;5.43;1.20;;;;;;;;;;4995587;28;20121;-59
2021/12/13 06:55:16;;;;;;;5.00;1.20;;;;;;;;;;5000690;28;20027;-54
2021/12/13 06:57:41;;;;;;;6.55;1.35;;;;;;;;;;5010076;28;20133;-58
2021/12/13 07:00:37;;;;;;;7.65;1.27;;;;;;;;;;5014444;28;20061;-59
2021/12/13 07:03:08;;;;;;;2.55;1.23;;;;;;;;;;5014332;28;20034;-58
2021/12/13 07:05:36;;;;;;;4.45;1.40;;;;;;;;;;5002121;28;20050;-58
2021/12/13 07:08:04;;;;;;;4.55;1.40;;;;;;;;;;5013778;28;20053;-58
2021/12/13 07:10:32;;;;;;;5.80;1.83;;;;;;;;;;5014658;28;20026;-58
2021/12/13 07:13:01;;;;;;;5.45;1.30;;;;;;;;;;5014847;28;20424;-58
2021/12/13 07:15:37;;;;;;;3.83;1.70;;;;;;;;;;5014007;28;20537;-58
2021/12/13 07:18:06;;;;;;;2.47;1.17;;;;;;;;;;5014755;28;20479;-58
2021/12/13 07:20:50;;;;;;;4.93;3.13;;;;;;;;;;5014119;28;20025;-55
2021/12/13 07:23:17;;;;;;;4.60;3.35;;;;;;;;;;5004616;28;20064;-58
2021/12/13 07:25:45;;;;;;;6.22;3.85;;;;;;;;;;5000438;28;20033;-58
2021/12/13 07:28:12;;;;;;;6.05;3.50;;;;;;;;;;4994225;28;20057;-59
2021/12/13 07:30:39;;;;;;;8.88;3.45;;;;;;;;;;4995063;28;20395;-56
2021/12/13 07:33:07;;;;;;;7.35;3.85;;;;;;;;;;4994970;28;20030;-57
2021/12/13 07:35:36;;;;;;;7.50;3.88;;;;;;;;;;4994329;28;20031;-58
2021/12/13 07:38:11;;;;;;;6.88;3.20;;;;;;;;;;5012589;28;20019;-57
2021/12/13 07:40:37;;;;;;;6.25;3.10;;;;;;;;;;5014380;28;20022;-58
2021/12/13 07:43:14;;;;;;;5.65;3.60;;;;;;;;;;5014288;28;20371;-56
2021/12/13 07:45:43;;;;;;;5.70;3.15;;;;;;;;;;5014364;28;20022;-56
2021/12/13 07:48:12;;;;;;;4.55;2.80;;;;;;;;;;5014002;28;20100;-57
2021/12/13 07:50:38;;;;;;;5.00;2.90;;;;;;;;;;5013462;28;20049;-58
2021/12/13 07:53:06;;;;;;;6.38;2.60;;;;;;;;;;5012949;28;20029;-56
2021/12/13 07:55:32;;;;;;;5.15;2.20;;;;;;;;;;5013191;28;20436;-57
2021/12/13 07:58:00;;;;;;;3.42;2.30;;;;;;;;;;5014092;28;20033;-57
2021/12/13 08:00:28;;;;;;;4.65;2.13;;;;;;;;;;5013445;28;20022;-56
2021/12/13 08:02:54;;;;;;;5.22;2.25;;;;;;;;;;5014062;28;20123;-56
2021/12/13 08:05:23;;;;;;;2.95;1.75;;;;;;;;;;5002253;28;20035;-57
2021/12/13 08:07:54;;;;;;;2.90;1.98;;;;;;;;;;5008631;28;20494;-57
2021/12/13 08:10:31;;;;;;;4.17;1.90;;;;;;;;;;5013205;28;20041;-56
2021/12/13 08:13:01;;;;;;;3.08;1.70;;;;;;;;;;5013087;28;20399;-56
2021/12/13 08:15:35;;;;;;;3.47;1.70;;;;;;;;;;5012654;28;20030;-57
2021/12/13 08:18:03;;;;;;;5.20;1.98;;;;;;;;;;5013665;28;20026;-57
2021/12/13 08:20:29;;;;;;;3.15;1.52;;;;;;;;;;5012600;28;20033;-56
2021/12/13 08:22:56;;;;;;;3.22;1.73;;;;;;;;;;5012734;28;20030;-56
2021/12/13 08:25:25;;;;;;;3.08;1.58;;;;;;;;;;5012427;28;20148;-57
2021/12/13 08:27:56;;;;;;;2.83;1.48;;;;;;;;;;5013205;28;20117;-58
2021/12/13 08:30:25;;;;;;;2.50;1.58;;;;;;;;;;5012268;28;20026;-56
2021/12/13 08:32:56;;;;;;;2.58;1.50;;;;;;;;;;5013036;28;20022;-58
2021/12/13 08:35:22;;;;;;;3.90;1.55;;;;;;;;;;5012329;28;20101;-56
2021/12/13 08:37:53;;;;;;;2.63;1.50;;;;;;;;;;5001816;28;20030;-56
2021/12/13 08:40:21;;;;;;;2.00;1.17;;;;;;;;;;5013870;28;20018;-56
2021/12/13 08:42:48;;;;;;;3.70;1.75;;;;;;;;;;5014257;28;20057;-57
2021/12/13 08:45:20;;;;;;;2.83;1.90;;;;;;;;;;5012438;28;20097;-59
2021/12/13 08:47:48;;;;;;;4.28;1.40;;;;;;;;;;5012960;28;20418;-56
2021/12/13 08:50:17;;;;;;;2.20;1.48;;;;;;;;;;5012405;28;20491;-58
2021/12/13 08:52:44;;;;;;;3.15;1.13;;;;;;;;;;5012659;28;20084;-56
2021/12/13 08:55:13;;;;;;;1.85;1.17;;;;;;;;;;5013112;28;20033;-57
2021/12/13 08:57:57;;;;;;;3.72;1.30;;;;;;;;;;5012315;28;20430;-58
2021/12/13 09:00:26;;;;;;;2.70;1.55;;;;;;;;;;5011796;28;20026;-57
2021/12/13 09:02:55;;;;;;;2.28;1.20;;;;;;;;;;5009510;28;20022;-56
2021/12/13 09:05:32;;;;;;;1.23;1.00;;;;;;;;;;5012269;28;20117;-55
2021/12/13 09:08:06;;;;;;;1.98;1.05;;;;;;;;;;5011451;28;20061;-56
2021/12/13 09:10:53;;;;;;;2.72;1.25;;;;;;;;;;5011201;28;20040;-57
2021/12/13 09:13:32;;;;;;;2.28;1.27;;;;;;;;;;5011498;28;20026;-56
2021/12/13 09:15:58;;;;;;;2.40;1.20;;;;;;;;;;5011012;28;20026;-55
2021/12/13 09:18:24;;;;;;;2.03;1.40;;;;;;;;;;5010650;28;20111;-57
2021/12/13 09:20:52;;;;;;;2.30;1.38;;;;;;;;;;5011673;28;20057;-56
2021/12/13 09:23:21;;;;;;;3.50;1.33;;;;;;;;;;5010885;28;20030;-57
2021/12/13 09:25:47;;;;;;;3.72;1.30;;;;;;;;;;5012021;28;20040;-56
2021/12/13 09:28:18;;;;;;;2.00;1.35;;;;;;;;;;5012571;28;20108;-57
2021/12/13 09:30:46;;;;;;;1.95;1.45;;;;;;;;;;5012047;28;20037;-57
2021/12/13 09:33:12;;;;;;;2.17;1.30;;;;;;;;;;5011886;28;20017;-56
2021/12/13 09:35:41;;;;;;;2.58;1.30;;;;;;;;;;5011002;28;20104;-56
2021/12/13 09:38:22;;;;;;;2.95;1.58;;;;;;;;;;5011588;28;20034;-55
2021/12/13 09:40:51;;;;;;;2.25;1.50;;;;;;;;;;5011231;28;20033;-56
2021/12/13 09:43:18;;;;;;;3.22;1.50;;;;;;;;;;5011971;28;20217;-59
2021/12/13 09:45:52;;;;;;;1.33;1.17;;;;;;;;;;5011626;28;20383;-56
2021/12/13 09:48:21;;;;;;;2.03;1.20;;;;;;;;;;5011805;28;20080;-56
2021/12/13 09:50:51;;;;;;;1.98;1.23;;;;;;;;;;5012242;28;20541;-56
2021/12/13 09:53:17;;;;;;;1.50;1.40;;;;;;;;;;5011867;28;20080;-56
2021/12/13 09:55:47;;;;;;;2.47;1.30;;;;;;;;;;5012056;28;20038;-56
2021/12/13 09:58:16;;;;;;;2.50;1.67;;;;;;;;;;5012274;28;20026;-57
2021/12/13 10:00:48;;;;;;;2.25;1.45;;;;;;;;;;5011323;28;20088;-57
2021/12/13 10:03:17;;;;;;;1.67;1.20;;;;;;;;;;5015556;28;20022;-56
2021/12/13 10:05:45;;;;;;;2.55;1.60;;;;;;;;;;5015248;28;20383;-56
2021/12/13 10:08:14;;;;;;;2.08;1.45;;;;;;;;;;5015809;28;20120;-55
2021/12/13 10:10:45;;;;;;;1.85;1.00;;;;;;;;;;5015352;28;20087;-57
2021/12/13 10:13:15;;;;;;;2.22;1.42;;;;;;;;;;5015908;28;20043;-56
2021/12/13 10:15:44;;;;;;;2.42;1.27;;;;;;;;;;5014209;28;20525;-56
2021/12/13 10:18:15;;;;;;;2.15;1.17;;;;;;;;;;5015421;28;20038;-56
2021/12/13 10:20:47;;;;;;;2.10;1.45;;;;;;;;;;5014944;28;20108;-56
2021/12/13 10:23:14;;;;;;;1.85;1.20;;;;;;;;;;5015337;28;20038;-56
2021/12/13 10:25:45;;;;;;;3.10;1.30;;;;;;;;;;5014519;28;20096;-56
2021/12/13 10:28:13;;;;;;;1.70;1.30;;;;;;;;;;5015711;28;20097;-55
2021/12/13 10:30:45;;;;;;;1.80;1.00;;;;;;;;;;5014911;28;20033;-56
2021/12/13 10:33:14;;;;;;;2.17;1.10;;;;;;;;;;5009988;28;20053;-57
2021/12/13 10:35:42;;;;;;;1.38;0.73;;;;;;;;;;5016092;28;20109;-57
2021/12/13 10:38:12;;;;;;;2.17;1.20;;;;;;;;;;5015968;28;20037;-57
2021/12/13 10:40:50;;;;;;;2.13;1.13;;;;;;;;;;5014428;28;20038;-58
2021/12/13 10:43:18;;;;;;;3.53;1.20;;;;;;;;;;5013700;28;20056;-57
2021/12/13 10:46:07;;;;;;;1.50;1.08;;;;;;;;;;5013179;28;20057;-56
2021/12/13 10:48:35;;;;;;;1.27;1.00;;;;;;;;;;5014246;28;20032;-58
2021/12/13 10:51:06;;;;;;;1.52;1.17;;;;;;;;;;5014726;28;20041;-57
2021/12/13 10:53:33;;;;;;;1.95;1.08;;;;;;;;;;5014442;28;20049;-56
2021/12/13 10:56:01;;;;;;;4.97;2.33;;;;;;;;;;5014599;28;20046;-56
2021/12/13 10:58:29;;;;;;;4.25;2.80;;;;;;;;;;5013787;28;20057;-58
2021/12/13 11:00:58;;;;;;;2.75;2.25;;;;;;;;;;5013915;28;20403;-58
2021/12/13 11:03:28;;;;;;;5.60;1.92;;;;;;;;;;5014340;28;20105;-57
2021/12/13 11:05:54;;;;;;;1.73;1.63;;;;;;;;;;5014128;28;20034;-58
2021/12/13 11:08:21;;;;;;;2.22;1.48;;;;;;;;;;5014727;28;20374;-57
2021/12/13 11:10:48;;;;;;;1.40;1.30;;;;;;;;;;5013707;28;20153;-57
2021/12/13 11:13:15;;;;;;;1.60;1.13;;;;;;;;;;5012009;28;20076;-55
2021/12/13 11:15:43;;;;;;;2.35;1.48;;;;;;;;;;5013427;28;20034;-55
2021/12/13 11:18:12;;;;;;;2.67;1.20;;;;;;;;;;5013793;28;20026;-56
2021/12/13 11:20:41;;;;;;;2.47;1.50;;;;;;;;;;5013400;28;20514;-58
2021/12/13 11:23:08;;;;;;;2.30;1.48;;;;;;;;;;5013848;28;20030;-57
2021/12/13 11:25:39;;;;;;;2.65;1.58;;;;;;;;;;5013477;28;20030;-56
2021/12/13 11:28:06;;;;;;;1.42;1.00;;;;;;;;;;5014385;28;20061;-56
2021/12/13 11:30:34;;;;;;;2.33;1.05;;;;;;;;;;5013778;28;20042;-56
2021/12/13 11:33:00;;;;;;;1.77;1.35;;;;;;;;;;5013477;28;20352;-58
2021/12/13 11:35:39;;;;;;;2.58;1.30;;;;;;;;;;5001949;28;20069;-57
2021/12/13 11:38:05;;;;;;;2.55;1.00;;;;;;;;;;5013936;28;20025;-56
2021/12/13 11:40:49;;;;;;;4.43;1.20;;;;;;;;;;5014067;28;20383;-58
2021/12/13 11:43:18;;;;;;;2.15;1.55;;;;;;;;;;4994821;28;20052;-56
2021/12/13 11:46:03;;;;;;;1.85;1.48;;;;;;;;;;5004004;28;20030;-58
2021/12/13 11:48:46;;;;;;;2.45;1.50;;;;;;;;;;5002607;28;20038;-59
2021/12/13 11:51:28;;;;;;;1.73;1.00;;;;;;;;;;5013376;28;20034;-57
2021/12/13 11:54:13;;;;;;;1.83;1.25;;;;;;;;;;4994466;28;20061;-57
2021/12/13 11:56:48;;;;;;;2.35;1.10;;;;;;;;;;5003678;28;20054;-56
2021/12/13 11:59:26;;;;;;;2.67;1.10;;;;;;;;;;5013820;28;20061;-56
2021/12/13 12:02:01;;;;;;;1.92;1.20;;;;;;;;;;5013073;28;20529;-57
2021/12/13 12:04:45;;;;;;;1.50;1.00;;;;;;;;;;5013412;28;20022;-55
2021/12/13 12:07:14;;;;;;;2.63;1.20;;;;;;;;;;5013317;28;20419;-56
2021/12/13 12:09:53;;;;;;;2.17;1.60;;;;;;;;;;5012415;28;20080;-56
2021/12/13 12:12:37;;;;;;;3.55;1.50;;;;;;;;;;5012667;28;20032;-57
2021/12/13 12:15:04;;;;;;;1.60;1.20;;;;;;;;;;5013849;28;20352;-56
2021/12/13 12:17:31;;;;;;;2.60;1.17;;;;;;;;;;5008471;28;20037;-56
2021/12/13 12:19:57;;;;;;;1.25;1.10;;;;;;;;;;5014446;28;20411;-56
2021/12/13 12:22:27;;;;;;;1.77;1.48;;;;;;;;;;5011427;28;20041;-56
2021/12/13 12:24:55;;;;;;;1.52;1.20;;;;;;;;;;5010740;28;20397;-57
2021/12/13 12:27:23;;;;;;;1.13;0.90;;;;;;;;;;5013630;28;20034;-56
2021/12/13 12:29:51;;;;;;;2.40;1.45;;;;;;;;;;5012137;28;20041;-56
2021/12/13 12:32:20;;;;;;;2.20;1.33;;;;;;;;;;5002309;28;20041;-55
2021/12/13 12:34:46;;;;;;;2.05;1.75;;;;;;;;;;5013959;28;20026;-55
2021/12/13 12:37:20;;;;;;;2.78;1.40;;;;;;;;;;5012961;28;20100;-58
2021/12/13 12:40:04;;;;;;;1.38;1.00;;;;;;;;;;5012922;28;20018;-55
2021/12/13 12:42:32;;;;;;;2.38;1.45;;;;;;;;;;5005409;28;20026;-55
2021/12/13 12:45:04;;;;;;;3.17;1.35;;;;;;;;;;5014167;28;20062;-57
2021/12/13 12:47:56;;;;;;;2.10;1.20;;;;;;;;;;5012966;28;20026;-56
2021/12/13 12:50:33;;;;;;;2.70;1.60;;;;;;;;;;5012624;28;20368;-56
2021/12/13 12:53:05;;;;;;;1.38;1.20;;;;;;;;;;5011601;28;20504;-57
2021/12/13 12:55:34;;;;;;;1.50;1.35;;;;;;;;;;5012512;28;20084;-55
2021/12/13 12:58:06;;;;;;;2.40;1.30;;;;;;;;;;5012908;28;20030;-56
2021/12/13 13:00:32;;;;;;;2.47;1.50;;;;;;;;;;5012491;28;20382;-57
2021/12/13 13:02:58;;;;;;;1.95;1.20;;;;;;;;;;5011247;28;20038;-56
2021/12/13 13:05:26;;;;;;;2.55;1.50;;;;;;;;;;5012117;28;20109;-56
2021/12/13 13:07:53;;;;;;;1.73;1.10;;;;;;;;;;5011537;28;20084;-55
2021/12/13 13:11:26;;;;;;;1.80;1.35;;;;;;;;;;5012727;28;20068;-56
2021/12/13 13:13:11;;;;;;;1.85;0.90;;;;;;;;;;5004906;28;20390;-56
2021/12/13 13:15:43;;;;;;;1.50;1.25;;;;;;;;;;5011786;28;20383;-57
2021/12/13 13:18:20;;;;;;;2.28;1.55;;;;;;;;;;4993165;28;20041;-56
2021/12/13 13:20:46;;;;;;;1.92;1.17;;;;;;;;;;4992180;28;20026;-57
2021/12/13 13:23:14;;;;;;;1.95;1.15;;;;;;;;;;5007635;28;20032;-56
2021/12/13 13:25:42;;;;;;;1.40;1.10;;;;;;;;;;5011181;28;20033;-55
2021/12/13 13:28:34;;;;;;;1.35;1.00;;;;;;;;;;5012330;28;20036;-57
2021/12/13 13:31:06;;;;;;;1.80;1.13;;;;;;;;;;5000597;28;20046;-56
2021/12/13 13:33:46;;;;;;;1.30;1.08;;;;;;;;;;5013453;28;20040;-56
2021/12/13 13:36:15;;;;;;;1.55;1.13;;;;;;;;;;5012235;28;20028;-56
2021/12/13 13:38:41;;;;;;;2.47;1.20;;;;;;;;;;5011910;28;20475;-58
2021/12/13 13:41:08;;;;;;;2.60;1.80;;;;;;;;;;5012309;28;20330;-56
2021/12/13 13:43:37;;;;;;;1.40;1.20;;;;;;;;;;5011584;28;20056;-55
2021/12/13 13:46:04;;;;;;;2.08;1.40;;;;;;;;;;5012238;28;20025;-57
2021/12/13 13:48:32;;;;;;;2.17;1.38;;;;;;;;;;5011584;28;20053;-57
2021/12/13 13:51:00;;;;;;;2.50;1.55;;;;;;;;;;5011203;28;20509;-57
2021/12/13 13:53:26;;;;;;;1.88;1.00;;;;;;;;;;5012074;28;20077;-55
2021/12/13 13:56:00;;;;;;;1.67;1.15;;;;;;;;;;5011144;28;20050;-57
2021/12/13 13:58:28;;;;;;;1.60;1.13;;;;;;;;;;5011868;28;20030;-56
2021/12/13 14:00:54;;;;;;;1.60;1.13;;;;;;;;;;5010408;28;20018;-56
2021/12/13 14:03:24;;;;;;;1.42;1.13;;;;;;;;;;5012075;28;20048;-57
2021/12/13 14:05:54;;;;;;;3.42;1.40;;;;;;;;;;5010821;28;20033;-56
2021/12/13 14:08:24;;;;;;;1.20;1.00;;;;;;;;;;5011109;28;20029;-56
2021/12/13 14:10:51;;;;;;;1.95;1.10;;;;;;;;;;5011279;28;20540;-56
2021/12/13 14:13:18;;;;;;;1.80;1.10;;;;;;;;;;5011687;28;20088;-55
2021/12/13 14:15:47;;;;;;;1.88;1.48;;;;;;;;;;5011183;28;20033;-54
2021/12/13 14:18:16;;;;;;;2.00;1.10;;;;;;;;;;5011730;28;20348;-54
2021/12/13 14:20:44;;;;;;;1.80;1.08;;;;;;;;;;5011236;28;20030;-56
2021/12/13 14:23:13;;;;;;;1.90;0.93;;;;;;;;;;5010532;28;20034;-52
2021/12/13 14:25:51;;;;;;;2.17;1.00;;;;;;;;;;5010771;28;20386;-57
2021/12/13 14:28:32;;;;;;;1.48;0.90;;;;;;;;;;5011326;28;20034;-56
2021/12/13 14:30:58;;;;;;;1.38;0.98;;;;;;;;;;5011180;28;20467;-56
2021/12/13 14:33:28;;;;;;;1.42;1.15;;;;;;;;;;5011487;28;20032;-55
2021/12/13 14:36:07;;;;;;;1.70;0.90;;;;;;;;;;5010281;28;20034;-57
2021/12/13 14:38:33;;;;;;;2.67;1.40;;;;;;;;;;5011831;28;20026;-56
2021/12/13 14:41:00;;;;;;;1.85;1.25;;;;;;;;;;5010473;28;20030;-55
2021/12/13 14:43:32;;;;;;;1.23;0.93;;;;;;;;;;5011061;28;20049;-58
2021/12/13 14:46:00;;;;;;;2.22;1.45;;;;;;;;;;5010626;28;20034;-58
2021/12/13 14:48:28;;;;;;;3.50;1.48;;;;;;;;;;5013555;28;20092;-58
2021/12/13 14:50:59;;;;;;;3.83;1.67;;;;;;;;;;5014058;28;20120;-58
2021/12/13 14:53:30;;;;;;;3.60;1.45;;;;;;;;;;5013747;28;20415;-58
2021/12/13 14:55:58;;;;;;;3.83;1.50;;;;;;;;;;5013770;28;20057;-57
2021/12/13 14:58:39;;;;;;;3.63;1.60;;;;;;;;;;5014987;28;20491;-57
2021/12/13 15:01:08;;;;;;;3.25;1.38;;;;;;;;;;5014415;28;20030;-56
2021/12/13 15:03:36;;;;;;;4.85;1.88;;;;;;;;;;5014197;28;20092;-55
2021/12/13 15:06:05;;;;;;;3.95;1.83;;;;;;;;;;5013072;28;20475;-56
2021/12/13 15:08:32;;;;;;;4.28;1.40;;;;;;;;;;5014784;28;20044;-52
2021/12/13 15:11:18;;;;;;;4.60;1.75;;;;;;;;;;5013966;28;20034;-53
2021/12/13 15:13:45;;;;;;;2.90;1.52;;;;;;;;;;5014477;28;20029;-53